sensor_id;sensor_type;location;lat;lon;timestamp;pressure;altitude;pressure_sealevel;temperature;humidity
75933;BME280;64803;52.356;5.310;2023-04-24T00:00:03;100036.25;;;10.28;100.00
75933;BME280;64803;52.356;5.310;2023-04-24T00:02:35;100044.28;;;10.28;100.00
75933;BME280;64803;52.356;5.310;2023-04-24T00:05:04;100040.59;;;10.29;100.00
75933;BME280;64803;52.356;5.310;2023-04-24T00:07:31;100037.09;;;10.28;100.00
75933;BME280;64803;52.356;5.310;2023-04-24T00:09:57;100040.41;;;10.30;100.00
75933;BME280;64803;52.356;5.310;2023-04-24T00:12:24;100040.84;;;10.34;100.00
75933;BME280;64803;52.356;5.310;2023-04-24T00:14:50;100038.75;;;10.36;100.00
75933;BME280;64803;52.356;5.310;2023-04-24T00:17:16;100035.84;;;10.31;100.00
75933;BME280;64803;52.356;5.310;2023-04-24T00:19:46;100041.66;;;10.34;100.00
75933;BME280;64803;52.356;5.310;2023-04-24T00:22:13;100041.84;;;10.33;100.00
75933;BME280;64803;52.356;5.310;2023-04-24T00:24:39;100039.09;;;10.19;100.00
75933;BME280;64803;52.356;5.310;2023-04-24T00:27:05;100048.13;;;10.18;100.00
75933;BME280;64803;52.356;5.310;2023-04-24T00:29:31;100043.16;;;10.15;100.00
75933;BME280;64803;52.356;5.310;2023-04-24T00:31:57;100046.91;;;10.14;100.00
75933;BME280;64803;52.356;5.310;2023-04-24T00:34:23;100040.88;;;10.12;100.00
75933;BME280;64803;52.356;5.310;2023-04-24T00:36:49;100050.97;;;10.10;100.00
75933;BME280;64803;52.356;5.310;2023-04-24T00:39:19;100040.63;;;10.07;100.00
75933;BME280;64803;52.356;5.310;2023-04-24T00:41:45;100048.28;;;10.10;100.00
75933;BME280;64803;52.356;5.310;2023-04-24T00:44:11;100005.88;;;9.99;100.00
75933;BME280;64803;52.356;5.310;2023-04-24T00:46:39;100012.16;;;9.85;100.00
75933;BME280;64803;52.356;5.310;2023-04-24T00:49:05;100028.13;;;9.93;100.00
75933;BME280;64803;52.356;5.310;2023-04-24T00:51:32;100041.38;;;10.01;100.00
75933;BME280;64803;52.356;5.310;2023-04-24T00:53:59;100034.28;;;9.94;100.00
75933;BME280;64803;52.356;5.310;2023-04-24T00:56:26;100040.66;;;9.86;100.00
75933;BME280;64803;52.356;5.310;2023-04-24T00:58:52;100042.88;;;9.83;100.00
75933;BME280;64803;52.356;5.310;2023-04-24T01:01:20;100055.69;;;9.87;100.00
75933;BME280;64803;52.356;5.310;2023-04-24T01:03:47;100064.25;;;9.97;100.00
75933;BME280;64803;52.356;5.310;2023-04-24T01:06:15;100067.66;;;9.85;100.00
75933;BME280;64803;52.356;5.310;2023-04-24T01:08:41;100097.75;;;9.87;100.00
75933;BME280;64803;52.356;5.310;2023-04-24T01:11:07;100099.25;;;9.68;100.00
75933;BME280;64803;52.356;5.310;2023-04-24T01:13:34;100104.09;;;9.58;100.00
75933;BME280;64803;52.356;5.310;2023-04-24T01:16:00;100115.56;;;9.52;100.00
75933;BME280;64803;52.356;5.310;2023-04-24T01:18:27;100114.66;;;9.45;100.00
75933;BME280;64803;52.356;5.310;2023-04-24T01:20:56;100126.66;;;9.49;100.00
75933;BME280;64803;52.356;5.310;2023-04-24T01:23:23;100130.81;;;9.52;100.00
75933;BME280;64803;52.356;5.310;2023-04-24T01:25:51;100122.13;;;9.50;100.00
75933;BME280;64803;52.356;5.310;2023-04-24T01:28:18;100122.94;;;9.50;100.00
75933;BME280;64803;52.356;5.310;2023-04-24T01:30:44;100138.56;;;9.47;100.00
75933;BME280;64803;52.356;5.310;2023-04-24T01:33:10;100131.75;;;9.44;100.00
75933;BME280;64803;52.356;5.310;2023-04-24T01:35:37;100140.19;;;9.41;100.00
75933;BME280;64803;52.356;5.310;2023-04-24T01:38:03;100141.94;;;9.34;100.00
75933;BME280;64803;52.356;5.310;2023-04-24T01:40:30;100121.72;;;9.17;100.00
75933;BME280;64803;52.356;5.310;2023-04-24T01:42:58;100142.03;;;9.26;100.00
75933;BME280;64803;52.356;5.310;2023-04-24T01:45:24;100109.19;;;9.03;100.00
75933;BME280;64803;52.356;5.310;2023-04-24T01:47:50;100145.47;;;9.20;100.00
75933;BME280;64803;52.356;5.310;2023-04-24T01:50:17;100143.16;;;9.17;100.00
75933;BME280;64803;52.356;5.310;2023-04-24T01:52:44;100134.84;;;9.12;100.00
75933;BME280;64803;52.356;5.310;2023-04-24T01:55:10;100142.78;;;9.20;100.00
75933;BME280;64803;52.356;5.310;2023-04-24T01:57:37;100141.56;;;9.23;100.00
75933;BME280;64803;52.356;5.310;2023-04-24T02:00:07;100148.97;;;9.21;100.00
75933;BME280;64803;52.356;5.310;2023-04-24T02:02:40;100141.88;;;9.13;100.00
75933;BME280;64803;52.356;5.310;2023-04-24T02:05:07;100138.09;;;9.07;100.00
75933;BME280;64803;52.356;5.310;2023-04-24T02:07:35;100160.91;;;9.18;100.00
75933;BME280;64803;52.356;5.310;2023-04-24T02:10:02;100158.75;;;9.13;100.00
75933;BME280;64803;52.356;5.310;2023-04-24T02:12:29;100172.34;;;9.12;100.00
75933;BME280;64803;52.356;5.310;2023-04-24T02:14:55;100169.00;;;9.10;100.00
75933;BME280;64803;52.356;5.310;2023-04-24T02:17:21;100175.00;;;9.12;100.00
75933;BME280;64803;52.356;5.310;2023-04-24T02:19:48;100178.06;;;9.09;100.00
75933;BME280;64803;52.356;5.310;2023-04-24T02:22:14;100176.16;;;9.03;100.00
75933;BME280;64803;52.356;5.310;2023-04-24T02:24:41;100180.28;;;9.05;100.00
75933;BME280;64803;52.356;5.310;2023-04-24T02:27:07;100181.19;;;8.98;100.00
75933;BME280;64803;52.356;5.310;2023-04-24T02:29:33;100179.56;;;8.97;100.00
75933;BME280;64803;52.356;5.310;2023-04-24T02:31:59;100186.94;;;8.95;100.00
75933;BME280;64803;52.356;5.310;2023-04-24T02:34:25;100176.59;;;8.92;100.00
75933;BME280;64803;52.356;5.310;2023-04-24T02:36:51;100183.97;;;8.90;100.00
75933;BME280;64803;52.356;5.310;2023-04-24T02:39:19;100188.88;;;8.86;100.00
75933;BME280;64803;52.356;5.310;2023-04-24T02:41:46;100172.63;;;8.73;100.00
75933;BME280;64803;52.356;5.310;2023-04-24T02:44:12;100184.59;;;8.77;100.00
75933;BME280;64803;52.356;5.310;2023-04-24T02:46:39;100184.97;;;8.74;100.00
75933;BME280;64803;52.356;5.310;2023-04-24T02:49:06;100180.81;;;8.72;100.00
75933;BME280;64803;52.356;5.310;2023-04-24T02:51:32;100190.91;;;8.70;100.00
75933;BME280;64803;52.356;5.310;2023-04-24T02:53:58;100178.88;;;8.66;100.00
75933;BME280;64803;52.356;5.310;2023-04-24T02:56:25;100178.69;;;8.67;100.00
75933;BME280;64803;52.356;5.310;2023-04-24T02:58:51;100193.09;;;8.66;100.00
75933;BME280;64803;52.356;5.310;2023-04-24T03:01:17;100195.59;;;8.68;100.00
75933;BME280;64803;52.356;5.310;2023-04-24T03:03:43;100181.56;;;8.66;100.00
75933;BME280;64803;52.356;5.310;2023-04-24T03:06:09;100184.88;;;8.68;100.00
75933;BME280;64803;52.356;5.310;2023-04-24T03:08:36;100190.44;;;8.66;100.00
75933;BME280;64803;52.356;5.310;2023-04-24T03:11:02;100190.06;;;8.69;100.00
75933;BME280;64803;52.356;5.310;2023-04-24T03:13:28;100206.94;;;8.70;100.00
75933;BME280;64803;52.356;5.310;2023-04-24T03:15:54;100188.22;;;8.70;100.00
75933;BME280;64803;52.356;5.310;2023-04-24T03:18:20;100200.75;;;8.69;100.00
75933;BME280;64803;52.356;5.310;2023-04-24T03:20:48;100199.72;;;8.70;100.00
75933;BME280;64803;52.356;5.310;2023-04-24T03:23:14;100198.56;;;8.73;100.00
75933;BME280;64803;52.356;5.310;2023-04-24T03:25:41;100194.19;;;8.72;100.00
75933;BME280;64803;52.356;5.310;2023-04-24T03:28:09;100193.00;;;8.74;100.00
75933;BME280;64803;52.356;5.310;2023-04-24T03:30:42;100190.81;;;8.78;100.00
75933;BME280;64803;52.356;5.310;2023-04-24T03:33:09;100190.81;;;8.78;100.00
75933;BME280;64803;52.356;5.310;2023-04-24T03:35:40;100193.66;;;8.76;100.00
75933;BME280;64803;52.356;5.310;2023-04-24T03:38:09;100195.31;;;8.77;100.00
75933;BME280;64803;52.356;5.310;2023-04-24T03:40:41;100193.84;;;8.75;100.00
75933;BME280;64803;52.356;5.310;2023-04-24T03:43:28;100193.66;;;8.76;100.00
75933;BME280;64803;52.356;5.310;2023-04-24T03:45:56;100198.19;;;8.76;100.00
75933;BME280;64803;52.356;5.310;2023-04-24T03:48:22;100199.19;;;8.75;100.00
75933;BME280;64803;52.356;5.310;2023-04-24T03:50:49;100200.00;;;8.75;100.00
75933;BME280;64803;52.356;5.310;2023-04-24T03:53:15;100203.91;;;8.73;100.00
75933;BME280;64803;52.356;5.310;2023-04-24T03:55:42;100207.56;;;8.72;100.00
75933;BME280;64803;52.356;5.310;2023-04-24T03:58:09;100212.47;;;8.68;100.00
75933;BME280;64803;52.356;5.310;2023-04-24T04:00:35;100216.63;;;8.71;100.00
75933;BME280;64803;52.356;5.310;2023-04-24T04:03:27;100217.00;;;8.68;100.00
75933;BME280;64803;52.356;5.310;2023-04-24T04:05:53;100210.53;;;8.62;100.00
75933;BME280;64803;52.356;5.310;2023-04-24T04:08:20;100225.09;;;8.60;100.00
75933;BME280;64803;52.356;5.310;2023-04-24T04:10:46;100227.56;;;8.61;100.00
75933;BME280;64803;52.356;5.310;2023-04-24T04:13:12;100234.13;;;8.59;100.00
75933;BME280;64803;52.356;5.310;2023-04-24T04:15:38;100234.50;;;8.56;100.00
75933;BME280;64803;52.356;5.310;2023-04-24T04:18:05;100233.00;;;8.53;100.00
75933;BME280;64803;52.356;5.310;2023-04-24T04:20:31;100239.19;;;8.54;100.00
75933;BME280;64803;52.356;5.310;2023-04-24T04:22:57;100245.56;;;8.53;100.00
75933;BME280;64803;52.356;5.310;2023-04-24T04:25:34;100249.25;;;8.52;100.00
75933;BME280;64803;52.356;5.310;2023-04-24T04:28:00;100244.88;;;8.51;100.00
75933;BME280;64803;52.356;5.310;2023-04-24T04:30:27;100253.28;;;8.48;100.00
75933;BME280;64803;52.356;5.310;2023-04-24T04:33:01;100254.50;;;8.45;100.00
75933;BME280;64803;52.356;5.310;2023-04-24T04:35:28;100237.81;;;8.35;100.00
75933;BME280;64803;52.356;5.310;2023-04-24T04:37:54;100253.00;;;8.43;100.00
75933;BME280;64803;52.356;5.310;2023-04-24T04:40:53;100253.66;;;8.45;100.00
75933;BME280;64803;52.356;5.310;2023-04-24T04:43:23;100255.66;;;8.43;100.00
75933;BME280;64803;52.356;5.310;2023-04-24T04:45:52;100255.50;;;8.44;100.00
75933;BME280;64803;52.356;5.310;2023-04-24T04:48:36;100267.56;;;8.40;100.00
75933;BME280;64803;52.356;5.310;2023-04-24T04:51:05;100265.53;;;8.42;100.00
75933;BME280;64803;52.356;5.310;2023-04-24T04:53:32;100268.06;;;8.44;100.00
75933;BME280;64803;52.356;5.310;2023-04-24T04:55:58;100264.06;;;8.40;100.00
75933;BME280;64803;52.356;5.310;2023-04-24T04:58:39;100269.22;;;8.41;100.00
75933;BME280;64803;52.356;5.310;2023-04-24T05:01:08;100268.38;;;8.41;100.00
75933;BME280;64803;52.356;5.310;2023-04-24T05:03:39;100269.59;;;8.38;100.00
75933;BME280;64803;52.356;5.310;2023-04-24T05:06:09;100274.09;;;8.38;100.00
75933;BME280;64803;52.356;5.310;2023-04-24T05:08:37;100281.09;;;8.39;100.00
75933;BME280;64803;52.356;5.310;2023-04-24T05:11:08;100276.22;;;8.42;100.00
75933;BME280;64803;52.356;5.310;2023-04-24T05:13:34;100283.44;;;8.42;100.00
75933;BME280;64803;52.356;5.310;2023-04-24T05:16:01;100281.84;;;8.33;100.00
75933;BME280;64803;52.356;5.310;2023-04-24T05:18:29;100302.34;;;8.40;100.00
75933;BME280;64803;52.356;5.310;2023-04-24T05:20:56;100298.00;;;8.39;100.00
75933;BME280;64803;52.356;5.310;2023-04-24T05:23:23;100303.00;;;8.42;100.00
75933;BME280;64803;52.356;5.310;2023-04-24T05:25:52;100306.50;;;8.43;100.00
75933;BME280;64803;52.356;5.310;2023-04-24T05:28:19;100313.88;;;8.41;100.00
75933;BME280;64803;52.356;5.310;2023-04-24T05:30:55;100321.72;;;8.42;100.00
75933;BME280;64803;52.356;5.310;2023-04-24T05:33:23;100312.88;;;8.42;100.00
75933;BME280;64803;52.356;5.310;2023-04-24T05:35:49;100322.91;;;8.40;100.00
75933;BME280;64803;52.356;5.310;2023-04-24T05:38:15;100332.97;;;8.38;100.00
75933;BME280;64803;52.356;5.310;2023-04-24T05:40:45;100336.66;;;8.37;100.00
75933;BME280;64803;52.356;5.310;2023-04-24T05:43:12;100354.06;;;8.33;100.00
75933;BME280;64803;52.356;5.310;2023-04-24T05:45:39;100347.69;;;8.34;100.00
75933;BME280;64803;52.356;5.310;2023-04-24T05:48:05;100350.19;;;8.35;100.00
75933;BME280;64803;52.356;5.310;2023-04-24T05:50:32;100352.84;;;8.35;100.00
75933;BME280;64803;52.356;5.310;2023-04-24T05:52:58;100353.69;;;8.36;100.00
75933;BME280;64803;52.356;5.310;2023-04-24T05:55:30;100350.19;;;8.35;100.00
75933;BME280;64803;52.356;5.310;2023-04-24T05:57:57;100365.72;;;8.40;100.00
75933;BME280;64803;52.356;5.310;2023-04-24T06:00:25;100338.03;;;8.25;100.00
75933;BME280;64803;52.356;5.310;2023-04-24T06:03:00;100380.56;;;8.42;100.00
75933;BME280;64803;52.356;5.310;2023-04-24T06:05:26;100376.38;;;8.48;100.00
75933;BME280;64803;52.356;5.310;2023-04-24T06:07:53;100387.69;;;8.58;100.00
75933;BME280;64803;52.356;5.310;2023-04-24T06:10:20;100404.38;;;8.68;100.00
75933;BME280;64803;52.356;5.310;2023-04-24T06:12:46;100420.13;;;8.63;100.00
75933;BME280;64803;52.356;5.310;2023-04-24T06:15:16;100414.13;;;8.61;100.00
75933;BME280;64803;52.356;5.310;2023-04-24T06:17:57;100427.50;;;8.53;100.00
75933;BME280;64803;52.356;5.310;2023-04-24T06:20:24;100421.84;;;8.48;100.00
75933;BME280;64803;52.356;5.310;2023-04-24T06:22:50;100446.31;;;8.45;100.00
75933;BME280;64803;52.356;5.310;2023-04-24T06:25:16;100454.16;;;8.46;100.00
75933;BME280;64803;52.356;5.310;2023-04-24T06:27:43;100469.72;;;8.43;100.00
75933;BME280;64803;52.356;5.310;2023-04-24T06:30:09;100485.81;;;8.35;100.00
75933;BME280;64803;52.356;5.310;2023-04-24T06:32:35;100478.78;;;8.34;100.00
75933;BME280;64803;52.356;5.310;2023-04-24T06:35:01;100492.50;;;8.31;100.00
75933;BME280;64803;52.356;5.310;2023-04-24T06:37:28;100485.81;;;8.27;100.00
75933;BME280;64803;52.356;5.310;2023-04-24T06:39:54;100490.81;;;8.22;100.00
75933;BME280;64803;52.356;5.310;2023-04-24T06:42:20;100493.66;;;8.20;100.00
75933;BME280;64803;52.356;5.310;2023-04-24T06:44:49;100501.88;;;8.19;100.00
75933;BME280;64803;52.356;5.310;2023-04-24T06:47:15;100488.34;;;8.12;100.00
75933;BME280;64803;52.356;5.310;2023-04-24T06:49:41;100513.22;;;8.13;100.00
75933;BME280;64803;52.356;5.310;2023-04-24T06:52:07;100514.25;;;8.12;100.00
75933;BME280;64803;52.356;5.310;2023-04-24T06:54:33;100526.97;;;8.10;100.00
75933;BME280;64803;52.356;5.310;2023-04-24T06:56:59;100532.13;;;8.11;100.00
75933;BME280;64803;52.356;5.310;2023-04-24T06:59:29;100539.16;;;8.12;100.00
75933;BME280;64803;52.356;5.310;2023-04-24T07:01:56;100536.16;;;8.15;100.00
75933;BME280;64803;52.356;5.310;2023-04-24T07:04:22;100541.00;;;8.12;100.00
75933;BME280;64803;52.356;5.310;2023-04-24T07:06:48;100537.97;;;8.15;100.00
75933;BME280;64803;52.356;5.310;2023-04-24T07:09:20;100540.81;;;8.13;100.00
75933;BME280;64803;52.356;5.310;2023-04-24T07:11:46;100559.06;;;8.10;100.00
75933;BME280;64803;52.356;5.310;2023-04-24T07:14:18;100551.69;;;8.12;100.00
75933;BME280;64803;52.356;5.310;2023-04-24T07:16:45;100563.91;;;8.14;100.00
75933;BME280;64803;52.356;5.310;2023-04-24T07:19:12;100574.09;;;8.19;100.00
75933;BME280;64803;52.356;5.310;2023-04-24T07:21:38;100581.25;;;8.18;100.00
75933;BME280;64803;52.356;5.310;2023-04-24T07:24:04;100579.44;;;8.19;100.00
75933;BME280;64803;52.356;5.310;2023-04-24T07:26:30;100588.13;;;8.21;100.00
75933;BME280;64803;52.356;5.310;2023-04-24T07:28:57;100593.47;;;8.21;100.00
75933;BME280;64803;52.356;5.310;2023-04-24T07:31:23;100600.47;;;8.22;100.00
75933;BME280;64803;52.356;5.310;2023-04-24T07:33:49;100596.81;;;8.23;100.00
75933;BME280;64803;52.356;5.310;2023-04-24T07:36:15;100601.19;;;8.24;100.00
75933;BME280;64803;52.356;5.310;2023-04-24T07:38:45;100604.84;;;8.23;100.00
75933;BME280;64803;52.356;5.310;2023-04-24T07:41:13;100614.22;;;8.27;100.00
75933;BME280;64803;52.356;5.310;2023-04-24T07:43:39;100626.25;;;8.31;100.00
75933;BME280;64803;52.356;5.310;2023-04-24T07:46:06;100623.91;;;8.36;100.00
75933;BME280;64803;52.356;5.310;2023-04-24T07:48:32;100626.59;;;8.36;100.00
75933;BME280;64803;52.356;5.310;2023-04-24T07:50:59;100630.59;;;8.40;100.00
75933;BME280;64803;52.356;5.310;2023-04-24T07:53:25;100631.94;;;8.44;100.00
75933;BME280;64803;52.356;5.310;2023-04-24T07:55:51;100629.59;;;8.49;100.00
75933;BME280;64803;52.356;5.310;2023-04-24T07:58:17;100639.97;;;8.44;100.00
75933;BME280;64803;52.356;5.310;2023-04-24T08:00:43;100640.97;;;8.43;100.00
75933;BME280;64803;52.356;5.310;2023-04-24T08:03:09;100656.66;;;8.46;100.00
75933;BME280;64803;52.356;5.310;2023-04-24T08:05:35;100652.34;;;8.37;100.00
75933;BME280;64803;52.356;5.310;2023-04-24T08:08:00;100652.66;;;8.34;100.00
75933;BME280;64803;52.356;5.310;2023-04-24T08:10:26;100672.41;;;8.25;100.00
75933;BME280;64803;52.356;5.310;2023-04-24T08:12:52;100665.53;;;8.22;100.00
75933;BME280;64803;52.356;5.310;2023-04-24T08:15:18;100680.41;;;8.17;100.00
75933;BME280;64803;52.356;5.310;2023-04-24T08:17:44;100684.09;;;8.16;100.00
75933;BME280;64803;52.356;5.310;2023-04-24T08:20:13;100681.41;;;8.16;100.00
75933;BME280;64803;52.356;5.310;2023-04-24T08:22:40;100689.28;;;8.17;100.00
75933;BME280;64803;52.356;5.310;2023-04-24T08:25:07;100702.31;;;8.20;100.00
75933;BME280;64803;52.356;5.310;2023-04-24T08:27:33;100705.81;;;8.21;100.00
75933;BME280;64803;52.356;5.310;2023-04-24T08:30:00;100710.66;;;8.17;100.00
75933;BME280;64803;52.356;5.310;2023-04-24T08:32:26;100718.00;;;8.15;100.00
75933;BME280;64803;52.356;5.310;2023-04-24T08:34:56;100725.22;;;8.23;100.00
75933;BME280;64803;52.356;5.310;2023-04-24T08:37:23;100726.09;;;8.31;100.00
75933;BME280;64803;52.356;5.310;2023-04-24T08:39:50;100733.63;;;8.44;100.00
75933;BME280;64803;52.356;5.310;2023-04-24T08:42:17;100748.50;;;8.46;100.00
75933;BME280;64803;52.356;5.310;2023-04-24T08:44:44;100744.81;;;8.55;100.00
75933;BME280;64803;52.356;5.310;2023-04-24T08:47:10;100747.66;;;8.62;100.00
75933;BME280;64803;52.356;5.310;2023-04-24T08:49:38;100750.81;;;8.49;100.00
75933;BME280;64803;52.356;5.310;2023-04-24T08:52:05;100727.28;;;8.37;100.00
75933;BME280;64803;52.356;5.310;2023-04-24T08:54:33;100751.00;;;8.40;100.00
75933;BME280;64803;52.356;5.310;2023-04-24T08:57:00;100762.69;;;8.39;100.00
75933;BME280;64803;52.356;5.310;2023-04-24T08:59:32;100766.38;;;8.38;100.00
75933;BME280;64803;52.356;5.310;2023-04-24T09:01:59;100771.06;;;8.36;100.00
75933;BME280;64803;52.356;5.310;2023-04-24T09:04:25;100767.75;;;8.42;100.00
75933;BME280;64803;52.356;5.310;2023-04-24T09:06:56;100776.91;;;8.47;100.00
75933;BME280;64803;52.356;5.310;2023-04-24T09:09:24;100779.94;;;8.52;100.00
75933;BME280;64803;52.356;5.310;2023-04-24T09:11:51;100788.81;;;8.61;100.00
75933;BME280;64803;52.356;5.310;2023-04-24T09:14:19;100784.13;;;8.71;100.00
75933;BME280;64803;52.356;5.310;2023-04-24T09:16:46;100790.84;;;8.75;100.00
75933;BME280;64803;52.356;5.310;2023-04-24T09:19:12;100787.78;;;8.86;100.00
75933;BME280;64803;52.356;5.310;2023-04-24T09:21:38;100799.19;;;8.88;100.00
75933;BME280;64803;52.356;5.310;2023-04-24T09:24:08;100806.88;;;8.83;100.00
75933;BME280;64803;52.356;5.310;2023-04-24T09:26:40;100819.94;;;8.86;100.00
75933;BME280;64803;52.356;5.310;2023-04-24T09:29:06;100825.97;;;8.88;100.00
75933;BME280;64803;52.356;5.310;2023-04-24T09:31:32;100817.09;;;8.95;100.00
75933;BME280;64803;52.356;5.310;2023-04-24T09:34:03;100828.28;;;8.91;100.00
75933;BME280;64803;52.356;5.310;2023-04-24T09:39:07;100825.13;;;8.95;100.00
75933;BME280;64803;52.356;5.310;2023-04-24T09:44:16;100835.00;;;8.79;100.00
75933;BME280;64803;52.356;5.310;2023-04-24T09:46:45;100852.41;;;8.83;100.00
75933;BME280;64803;52.356;5.310;2023-04-24T09:49:15;100843.72;;;8.89;100.00
75933;BME280;64803;52.356;5.310;2023-04-24T09:51:42;100849.72;;;8.91;100.00
75933;BME280;64803;52.356;5.310;2023-04-24T09:54:17;100853.75;;;9.03;100.00
75933;BME280;64803;52.356;5.310;2023-04-24T09:56:54;100838.81;;;9.08;100.00
75933;BME280;64803;52.356;5.310;2023-04-24T09:59:20;100853.41;;;9.22;100.00
75933;BME280;64803;52.356;5.310;2023-04-24T10:01:46;100854.41;;;9.29;100.00
75933;BME280;64803;52.356;5.310;2023-04-24T10:04:24;100860.06;;;9.42;100.00
75933;BME280;64803;52.356;5.310;2023-04-24T10:06:52;100849.53;;;9.33;100.00
75933;BME280;64803;52.356;5.310;2023-04-24T10:09:21;100878.84;;;9.26;100.00
75933;BME280;64803;52.356;5.310;2023-04-24T10:11:49;100875.84;;;9.05;100.00
75933;BME280;64803;52.356;5.310;2023-04-24T10:14:17;100873.16;;;9.05;100.00
75933;BME280;64803;52.356;5.310;2023-04-24T10:16:44;100872.50;;;9.11;100.00
75933;BME280;64803;52.356;5.310;2023-04-24T10:19:14;100873.66;;;9.25;100.00
75933;BME280;64803;52.356;5.310;2023-04-24T10:21:42;100876.97;;;9.35;100.00
75933;BME280;64803;52.356;5.310;2023-04-24T10:24:16;100876.47;;;9.47;100.00
75933;BME280;64803;52.356;5.310;2023-04-24T10:26:43;100883.16;;;9.59;100.00
75933;BME280;64803;52.356;5.310;2023-04-24T10:29:11;100878.97;;;9.57;100.00
75933;BME280;64803;52.356;5.310;2023-04-24T10:31:39;100878.34;;;9.15;100.00
75933;BME280;64803;52.356;5.310;2023-04-24T10:34:06;100897.75;;;9.08;100.00
75933;BME280;64803;52.356;5.310;2023-04-24T10:36:41;100920.88;;;8.85;100.00
75933;BME280;64803;52.356;5.310;2023-04-24T10:39:11;100924.25;;;8.46;100.00
75933;BME280;64803;52.356;5.310;2023-04-24T10:41:38;100906.25;;;8.14;100.00
75933;BME280;64803;52.356;5.310;2023-04-24T10:46:34;100919.00;;;8.78;100.00
75933;BME280;64803;52.356;5.310;2023-04-24T10:49:03;100904.47;;;9.21;100.00
75933;BME280;64803;52.356;5.310;2023-04-24T10:51:49;100911.97;;;9.57;100.00
75933;BME280;64803;52.356;5.310;2023-04-24T10:54:26;100914.16;;;9.62;100.00
75933;BME280;64803;52.356;5.310;2023-04-24T10:56:53;100892.56;;;9.39;100.00
75933;BME280;64803;52.356;5.310;2023-04-24T10:59:39;100917.19;;;9.51;100.00
75933;BME280;64803;52.356;5.310;2023-04-24T11:02:07;100913.28;;;9.77;100.00
75933;BME280;64803;52.356;5.310;2023-04-24T11:04:34;100920.47;;;9.85;100.00
75933;BME280;64803;52.356;5.310;2023-04-24T11:07:02;100921.00;;;9.72;100.00
75933;BME280;64803;52.356;5.310;2023-04-24T11:09:32;100909.56;;;9.86;100.00
75933;BME280;64803;52.356;5.310;2023-04-24T11:12:07;100929.03;;;9.80;100.00
75933;BME280;64803;52.356;5.310;2023-04-24T11:20:07;100931.78;;;9.08;100.00
75933;BME280;64803;52.356;5.310;2023-04-24T11:22:37;100931.06;;;8.98;100.00
75933;BME280;64803;52.356;5.310;2023-04-24T11:25:04;100932.41;;;9.02;100.00
75933;BME280;64803;52.356;5.310;2023-04-24T11:27:42;100937.28;;;9.23;100.00
75933;BME280;64803;52.356;5.310;2023-04-24T11:30:09;100949.88;;;9.46;100.00
75933;BME280;64803;52.356;5.310;2023-04-24T11:37:36;100951.16;;;9.66;100.00
75933;BME280;64803;52.356;5.310;2023-04-24T11:40:04;100966.25;;;9.67;100.00
75933;BME280;64803;52.356;5.310;2023-04-24T11:42:38;100959.16;;;9.90;100.00
75933;BME280;64803;52.356;5.310;2023-04-24T11:47:35;100971.13;;;9.64;100.00
75933;BME280;64803;52.356;5.310;2023-04-24T11:50:04;100980.00;;;9.40;100.00
75933;BME280;64803;52.356;5.310;2023-04-24T11:52:30;100980.50;;;9.12;100.00
75933;BME280;64803;52.356;5.310;2023-04-24T11:54:56;100990.06;;;9.22;100.00
75933;BME280;64803;52.356;5.310;2023-04-24T11:57:24;100998.78;;;9.32;100.00
75933;BME280;64803;52.356;5.310;2023-04-24T11:59:53;101000.78;;;9.46;100.00
75933;BME280;64803;52.356;5.310;2023-04-24T12:02:23;101002.97;;;9.67;100.00
75933;BME280;64803;52.356;5.310;2023-04-24T12:04:51;101018.88;;;9.68;100.00
75933;BME280;64803;52.356;5.310;2023-04-24T12:07:17;101003.13;;;9.65;98.80
75933;BME280;64803;52.356;5.310;2023-04-24T12:09:48;101005.13;;;9.71;99.71
75933;BME280;64803;52.356;5.310;2023-04-24T12:12:16;101009.47;;;9.80;100.00
75933;BME280;64803;52.356;5.310;2023-04-24T12:14:43;101001.09;;;9.91;100.00
75933;BME280;64803;52.356;5.310;2023-04-24T12:17:09;101025.06;;;9.93;100.00
75933;BME280;64803;52.356;5.310;2023-04-24T12:19:36;101031.63;;;9.58;100.00
75933;BME280;64803;52.356;5.310;2023-04-24T12:22:04;101036.53;;;9.05;100.00
75933;BME280;64803;52.356;5.310;2023-04-24T12:24:31;101049.41;;;8.52;100.00
75933;BME280;64803;52.356;5.310;2023-04-24T12:26:58;101034.34;;;8.51;100.00
75933;BME280;64803;52.356;5.310;2023-04-24T12:29:24;101042.44;;;8.59;100.00
75933;BME280;64803;52.356;5.310;2023-04-24T12:31:51;101041.75;;;8.57;100.00
75933;BME280;64803;52.356;5.310;2023-04-24T12:34:18;101051.97;;;8.61;100.00
75933;BME280;64803;52.356;5.310;2023-04-24T12:36:46;101059.19;;;8.69;100.00
75933;BME280;64803;52.356;5.310;2023-04-24T12:39:17;101049.19;;;8.79;100.00
75933;BME280;64803;52.356;5.310;2023-04-24T12:41:56;101065.47;;;8.85;100.00
75933;BME280;64803;52.356;5.310;2023-04-24T12:44:33;101063.50;;;8.95;100.00
75933;BME280;64803;52.356;5.310;2023-04-24T12:47:00;101061.22;;;9.25;100.00
75933;BME280;64803;52.356;5.310;2023-04-24T12:49:28;101061.44;;;9.39;100.00
75933;BME280;64803;52.356;5.310;2023-04-24T12:51:54;101050.84;;;9.22;100.00
75933;BME280;64803;52.356;5.310;2023-04-24T12:54:20;101069.13;;;9.34;100.00
75933;BME280;64803;52.356;5.310;2023-04-24T12:56:45;101065.78;;;9.56;100.00
75933;BME280;64803;52.356;5.310;2023-04-24T12:59:12;101066.78;;;9.47;100.00
75933;BME280;64803;52.356;5.310;2023-04-24T13:01:38;101060.41;;;9.40;100.00
75933;BME280;64803;52.356;5.310;2023-04-24T13:04:05;101067.13;;;9.44;100.00
75933;BME280;64803;52.356;5.310;2023-04-24T13:06:31;101081.69;;;9.42;100.00
75933;BME280;64803;52.356;5.310;2023-04-24T13:08:57;101087.84;;;9.18;100.00
75933;BME280;64803;52.356;5.310;2023-04-24T13:11:24;101071.25;;;9.15;100.00
75933;BME280;64803;52.356;5.310;2023-04-24T13:13:50;101078.59;;;9.13;100.00